createdAt,value
2022-10-25T00:02:24.291Z,56.43
2022-10-25T00:04:51.607Z,56.23
2022-10-25T00:07:18.528Z,56.60
2022-10-25T00:09:45.375Z,55.68
2022-10-25T00:12:12.243Z,55.46
2022-10-25T00:14:39.117Z,56.02
2022-10-25T00:17:05.968Z,56.45
2022-10-25T00:19:33.227Z,57.28
2022-10-25T00:22:00.109Z,56.86
2022-10-25T00:24:27.040Z,56.99
2022-10-25T00:26:53.963Z,57.11
2022-10-25T00:29:20.900Z,56.58
2022-10-25T00:31:48.131Z,57.39
2022-10-25T00:34:15.099Z,57.77
2022-10-25T00:36:41.982Z,58.74
2022-10-25T00:39:08.920Z,58.77
2022-10-25T00:41:35.998Z,59.34
2022-10-25T00:44:37.042Z,59.28
2022-10-25T00:47:18.415Z,59.67
2022-10-25T00:49:47.361Z,59.59
2022-10-25T00:52:14.330Z,59.80
2022-10-25T00:54:49.090Z,59.69
2022-10-25T00:57:28.127Z,59.85
2022-10-25T00:59:55.285Z,59.48
2022-10-25T01:02:22.981Z,59.66
2022-10-25T01:04:50.972Z,59.56
2022-10-25T01:07:17.835Z,59.93
2022-10-25T01:09:45.186Z,59.10
2022-10-25T01:12:12.171Z,58.57
2022-10-25T01:14:44.458Z,58.35
2022-10-25T01:17:20.532Z,58.67
2022-10-25T01:20:08.734Z,58.75
2022-10-25T01:22:41.875Z,58.81
2022-10-25T01:25:11.726Z,59.04
2022-10-25T01:27:51.976Z,58.77
2022-10-25T01:30:25.092Z,59.32
2022-10-25T01:33:16.586Z,59.23
2022-10-25T01:35:54.124Z,59.90
2022-10-25T01:38:50.483Z,59.64
2022-10-25T01:41:25.023Z,59.85
2022-10-25T01:44:20.953Z,59.46
2022-10-25T01:46:57.007Z,59.60
2022-10-25T01:49:58.137Z,59.24
2022-10-25T01:52:25.688Z,59.34
2022-10-25T01:54:52.869Z,59.21
2022-10-25T01:57:58.733Z,59.24
2022-10-25T02:00:26.519Z,59.33
2022-10-25T02:02:59.065Z,59.46
2022-10-25T02:06:03.258Z,59.60
2022-10-25T02:08:57.836Z,60.32
2022-10-25T02:11:30.394Z,59.64
2022-10-25T02:14:10.718Z,59.78
2022-10-25T02:16:50.806Z,59.69
2022-10-25T02:19:21.294Z,59.40
2022-10-25T02:21:50.313Z,59.35
2022-10-25T02:24:21.874Z,59.08
2022-10-25T02:26:50.941Z,59.03
2022-10-25T02:29:19.938Z,58.56
2022-10-25T02:31:47.230Z,58.83
2022-10-25T02:34:14.393Z,58.71
2022-10-25T02:36:41.253Z,58.84
2022-10-25T02:39:08.762Z,59.26
2022-10-25T02:41:35.911Z,59.52
2022-10-25T02:44:02.766Z,59.25
2022-10-25T02:46:29.742Z,59.43
2022-10-25T02:48:56.584Z,59.56
2022-10-25T02:51:23.617Z,59.57
2022-10-25T02:53:50.622Z,60.44
2022-10-25T02:56:20.003Z,60.22
2022-10-25T02:58:48.386Z,60.12
2022-10-25T03:01:17.438Z,59.60
2022-10-25T03:03:45.300Z,60.39
2022-10-25T03:06:12.958Z,61.33
2022-10-25T03:08:41.243Z,61.73
2022-10-25T03:11:10.365Z,61.30
2022-10-25T03:13:37.785Z,61.30
2022-10-25T03:16:04.948Z,60.87
2022-10-25T03:18:31.874Z,61.13
2022-10-25T03:21:00.889Z,60.80
2022-10-25T03:23:28.811Z,60.92
2022-10-25T03:25:58.123Z,60.59
2022-10-25T03:28:27.551Z,60.68
2022-10-25T03:30:56.132Z,60.75
2022-10-25T03:33:23.385Z,59.89
2022-10-25T03:35:51.947Z,60.02
2022-10-25T03:38:18.968Z,59.84
2022-10-25T03:40:46.330Z,59.74
2022-10-25T03:43:13.289Z,59.85
2022-10-25T03:45:40.252Z,59.46
2022-10-25T03:48:07.458Z,59.62
2022-10-25T03:50:36.186Z,59.66
2022-10-25T03:53:04.642Z,59.65
2022-10-25T03:55:32.088Z,59.40
2022-10-25T03:57:59.190Z,59.70
2022-10-25T04:00:26.981Z,59.90
2022-10-25T04:03:01.866Z,59.38
2022-10-25T04:05:30.730Z,59.79
2022-10-25T04:07:57.971Z,59.29
2022-10-25T04:10:25.757Z,58.96
2022-10-25T04:12:54.491Z,59.51
2022-10-25T04:15:22.895Z,59.46
2022-10-25T04:17:53.624Z,59.42
2022-10-25T04:20:21.146Z,59.34
2022-10-25T04:22:58.244Z,59.35
2022-10-25T04:25:26.975Z,59.62
2022-10-25T04:27:54.041Z,59.37
2022-10-25T04:30:20.959Z,59.45
2022-10-25T04:32:48.122Z,59.28
2022-10-25T04:35:15.275Z,59.38
2022-10-25T04:37:42.393Z,59.19
2022-10-25T04:40:10.157Z,58.99
2022-10-25T04:42:37.051Z,59.22
2022-10-25T04:45:04.273Z,58.74
2022-10-25T04:47:32.712Z,58.84
2022-10-25T04:50:00.311Z,58.46
2022-10-25T04:52:29.562Z,58.65
2022-10-25T04:54:56.880Z,58.61
2022-10-25T04:57:24.079Z,59.47
2022-10-25T04:59:51.063Z,59.17
2022-10-25T05:02:17.944Z,58.33
2022-10-25T05:04:44.838Z,58.30
2022-10-25T05:07:11.702Z,58.30
2022-10-25T05:09:40.078Z,58.40
2022-10-25T05:12:08.437Z,58.37
2022-10-25T05:14:35.331Z,58.17
2022-10-25T05:17:02.191Z,58.04
2022-10-25T05:19:29.122Z,57.67
2022-10-25T05:21:56.158Z,57.48
2022-10-25T05:24:23.119Z,57.54
2022-10-25T05:26:49.959Z,57.14
2022-10-25T05:29:16.899Z,57.00
2022-10-25T05:31:43.815Z,56.69
2022-10-25T05:34:10.968Z,56.69
2022-10-25T05:36:38.282Z,56.27
2022-10-25T05:39:05.313Z,56.59
2022-10-25T05:41:36.048Z,55.82
2022-10-25T05:44:05.398Z,55.92
2022-10-25T05:46:32.427Z,55.71
2022-10-25T05:49:00.072Z,55.08
2022-10-25T05:51:37.294Z,55.04
2022-10-25T05:54:13.030Z,53.99
2022-10-25T05:56:41.069Z,54.66
2022-10-25T05:59:13.305Z,53.76
2022-10-25T06:01:42.806Z,53.74
2022-10-25T06:04:10.325Z,53.29
2022-10-25T06:06:39.153Z,53.33
2022-10-25T06:09:07.338Z,53.16
2022-10-25T06:11:35.739Z,52.17
2022-10-25T06:14:03.260Z,53.27
2022-10-25T06:16:30.317Z,52.21
2022-10-25T06:18:57.533Z,52.62
2022-10-25T06:21:27.007Z,52.30
2022-10-25T06:23:54.366Z,51.07
2022-10-25T06:26:27.297Z,51.91
2022-10-25T06:28:56.434Z,52.35
2022-10-25T06:31:23.708Z,51.84
2022-10-25T06:33:51.035Z,51.31
2022-10-25T06:36:20.348Z,51.56
2022-10-25T06:38:48.350Z,51.33
2022-10-25T06:41:17.981Z,51.35
2022-10-25T06:43:44.998Z,51.57
2022-10-25T06:46:21.739Z,51.62
2022-10-25T06:48:49.344Z,52.05
2022-10-25T06:51:16.310Z,52.71
2022-10-25T06:53:43.171Z,53.64
2022-10-25T06:56:14.716Z,52.13
2022-10-25T06:58:42.468Z,51.96
2022-10-25T07:01:17.439Z,51.71
2022-10-25T07:03:46.193Z,51.12
2022-10-25T07:06:18.885Z,50.76
2022-10-25T07:08:47.313Z,51.63
2022-10-25T07:11:17.250Z,49.99
2022-10-25T07:13:44.623Z,49.85
2022-10-25T07:16:16.420Z,49.11
2022-10-25T07:18:43.877Z,50.04
2022-10-25T07:21:13.275Z,49.76
2022-10-25T07:23:43.941Z,49.60
2022-10-25T07:26:16.684Z,49.74
2022-10-25T07:28:46.167Z,50.00
2022-10-25T07:31:25.126Z,49.99
2022-10-25T07:33:53.821Z,48.34
2022-10-25T07:36:21.152Z,48.56
2022-10-25T07:38:48.045Z,48.48
2022-10-25T07:41:15.069Z,47.59
2022-10-25T07:43:42.263Z,47.20
2022-10-25T07:46:09.528Z,47.53
2022-10-25T07:48:36.665Z,47.18
2022-10-25T07:51:11.595Z,46.58
2022-10-25T07:53:39.131Z,46.54
2022-10-25T07:56:06.641Z,46.18
2022-10-25T07:58:33.865Z,45.62
2022-10-25T08:01:06.424Z,45.89
2022-10-25T08:03:34.021Z,45.66
2022-10-25T08:06:01.457Z,45.49
2022-10-25T08:08:29.560Z,44.90
2022-10-25T08:10:57.295Z,44.31
2022-10-25T08:13:24.258Z,44.91
2022-10-25T08:15:56.316Z,44.55
2022-10-25T08:18:24.090Z,44.57
2022-10-25T08:21:06.478Z,44.88
2022-10-25T08:23:34.036Z,43.77
2022-10-25T08:26:02.234Z,43.54
2022-10-25T08:28:31.490Z,43.31
2022-10-25T08:31:01.187Z,42.84
2022-10-25T08:33:29.210Z,43.21
2022-10-25T08:35:56.170Z,42.55
2022-10-25T08:38:23.037Z,42.50
2022-10-25T08:41:10.362Z,42.62
2022-10-25T08:44:01.248Z,42.82
2022-10-25T08:46:35.135Z,42.30
2022-10-25T08:49:14.031Z,42.52
2022-10-25T08:51:45.454Z,42.05
2022-10-25T08:54:22.557Z,41.66
2022-10-25T08:57:10.910Z,41.31
2022-10-25T08:59:45.735Z,41.15
2022-10-25T09:02:35.978Z,40.95
2022-10-25T09:05:03.883Z,41.14
2022-10-25T09:07:44.707Z,41.77
2022-10-25T09:10:43.802Z,41.59
2022-10-25T09:13:30.920Z,40.43
2022-10-25T09:16:05.945Z,40.82
2022-10-25T09:18:55.085Z,41.75
2022-10-25T09:21:39.929Z,40.50
2022-10-25T09:24:21.870Z,41.02
2022-10-25T09:27:08.948Z,40.93
2022-10-25T09:29:55.460Z,40.64
2022-10-25T09:32:32.110Z,40.16
2022-10-25T09:35:01.621Z,40.62
2022-10-25T09:37:36.048Z,39.79
2022-10-25T09:40:22.293Z,39.85
2022-10-25T09:42:49.081Z,39.62
2022-10-25T10:16:50.208Z,42.68
2022-10-25T10:19:20.058Z,42.35
2022-10-25T10:22:08.790Z,40.67
2022-10-25T10:24:41.268Z,40.85
2022-10-25T10:27:13.980Z,41.27
2022-10-25T10:29:59.943Z,40.99
2022-10-25T10:32:31.981Z,40.96
2022-10-25T10:34:59.715Z,40.64
2022-10-25T10:37:28.963Z,40.84
2022-10-25T10:40:02.908Z,41.13
2022-10-25T10:42:35.655Z,41.34
2022-10-25T10:45:08.726Z,40.88
2022-10-25T10:47:41.979Z,40.98
2022-10-25T10:50:20.589Z,41.41
2022-10-25T10:53:09.407Z,41.57
2022-10-25T10:55:46.855Z,41.87
2022-10-25T10:58:17.820Z,42.57
2022-10-25T11:01:12.791Z,42.72
2022-10-25T11:03:49.212Z,43.30
2022-10-25T11:06:32.145Z,43.58
2022-10-25T11:09:17.993Z,43.51
2022-10-25T11:12:04.385Z,43.84
2022-10-25T11:14:31.485Z,43.63
2022-10-25T11:17:26.360Z,44.06
2022-10-25T11:20:25.144Z,43.33
2022-10-25T11:23:06.920Z,43.75
2022-10-25T11:25:58.360Z,43.56
2022-10-25T11:28:47.934Z,43.13
2022-10-25T11:31:33.195Z,42.48
2022-10-25T11:34:24.657Z,41.82
2022-10-25T11:37:00.420Z,42.14
2022-10-25T11:39:51.576Z,41.79
2022-10-25T11:42:58.763Z,41.85
2022-10-25T11:45:28.865Z,41.85
2022-10-25T11:48:09.900Z,41.67
2022-10-25T11:50:49.390Z,41.29
2022-10-25T11:53:25.112Z,40.88
2022-10-25T11:56:04.811Z,41.11
2022-10-25T11:58:40.699Z,40.50
2022-10-25T12:01:16.681Z,41.14
2022-10-25T12:03:46.293Z,40.84
2022-10-25T12:06:24.481Z,40.09
2022-10-25T12:09:26.623Z,40.27
2022-10-25T12:12:03.363Z,41.29
2022-10-25T12:14:38.287Z,40.50
2022-10-25T12:17:13.065Z,40.33
2022-10-25T12:19:46.641Z,40.62
2022-10-25T12:22:34.705Z,40.48
2022-10-25T12:25:23.849Z,40.55
2022-10-25T12:28:21.342Z,40.83
2022-10-25T12:30:50.800Z,40.66
2022-10-25T12:33:39.610Z,40.91
2022-10-25T12:36:15.758Z,40.69
2022-10-25T12:38:42.940Z,40.67
2022-10-25T12:41:23.658Z,40.87
2022-10-25T12:43:56.595Z,40.98
2022-10-25T12:46:46.818Z,41.10
2022-10-25T12:49:41.396Z,40.68
2022-10-25T12:52:32.734Z,41.00
2022-10-25T12:55:41.039Z,41.14
2022-10-25T12:58:16.928Z,40.88
2022-10-25T13:00:56.710Z,40.78
2022-10-25T13:03:45.229Z,41.02
2022-10-25T13:06:24.179Z,41.29
2022-10-25T13:08:51.559Z,41.58
2022-10-25T13:11:18.576Z,41.59
2022-10-25T13:13:56.013Z,41.78
2022-10-25T13:16:34.348Z,42.98
2022-10-25T13:19:30.579Z,43.08
2022-10-25T13:22:14.097Z,43.24
2022-10-25T13:24:43.745Z,43.20
2022-10-25T13:27:13.536Z,43.56
2022-10-25T13:30:02.791Z,43.33
2022-10-25T13:32:32.651Z,43.49
2022-10-25T13:34:59.838Z,42.77
2022-10-25T13:37:32.647Z,43.43
2022-10-25T13:40:03.937Z,44.82
2022-10-25T13:42:37.812Z,44.54
2022-10-25T13:45:04.599Z,44.39
2022-10-25T13:47:41.582Z,44.81
2022-10-25T13:50:18.007Z,44.53
2022-10-25T13:53:00.190Z,45.17
2022-10-25T13:55:34.854Z,44.98
2022-10-25T13:58:01.868Z,45.12
2022-10-25T14:00:39.108Z,45.71
2022-10-25T14:03:08.662Z,46.30
2022-10-25T14:05:54.063Z,46.01
2022-10-25T14:08:38.837Z,45.91
2022-10-25T14:11:14.766Z,45.38
2022-10-25T14:13:58.216Z,44.93
2022-10-25T14:16:30.270Z,45.89
2022-10-25T14:19:03.347Z,46.16
2022-10-25T14:21:30.400Z,45.98
2022-10-25T14:23:58.381Z,46.25
2022-10-25T14:26:25.407Z,46.12
2022-10-25T14:28:52.398Z,46.00
2022-10-25T14:31:21.799Z,46.87
2022-10-25T14:33:56.541Z,46.84
2022-10-25T14:36:36.759Z,46.92
2022-10-25T14:39:25.665Z,46.90
2022-10-25T14:41:57.863Z,46.87
2022-10-25T14:44:30.152Z,47.75
2022-10-25T14:46:59.366Z,47.06
2022-10-25T14:49:27.548Z,47.93
2022-10-25T14:51:59.817Z,47.27
2022-10-25T14:54:37.611Z,47.48
2022-10-25T14:57:09.730Z,47.46
2022-10-25T14:59:48.406Z,48.04
2022-10-25T15:02:20.956Z,48.18
2022-10-25T15:04:50.362Z,48.53
2022-10-25T15:07:41.689Z,49.69
2022-10-25T15:10:35.425Z,48.33
2022-10-25T15:13:12.689Z,48.23
2022-10-25T15:15:44.973Z,49.11
2022-10-25T15:18:27.174Z,48.99
2022-10-25T15:21:16.452Z,49.49
2022-10-25T15:24:04.469Z,48.96
2022-10-25T15:26:34.676Z,47.80
2022-10-25T15:29:05.116Z,48.10
2022-10-25T15:31:33.012Z,49.24
2022-10-25T15:34:05.582Z,47.98
2022-10-25T15:36:34.170Z,48.23
2022-10-25T15:39:10.484Z,47.53
2022-10-25T15:41:41.167Z,45.52
2022-10-25T15:44:08.160Z,44.37
2022-10-25T15:46:35.412Z,45.02
2022-10-25T15:49:06.866Z,44.43
2022-10-25T15:51:36.265Z,43.62
2022-10-25T15:54:03.361Z,42.42
2022-10-25T15:56:30.267Z,42.77
2022-10-25T15:58:58.792Z,42.92
2022-10-25T16:01:25.910Z,42.54
2022-10-25T16:03:52.906Z,42.90
2022-10-25T16:06:19.838Z,41.81
2022-10-25T16:08:46.701Z,42.29
2022-10-25T16:11:17.628Z,42.59
2022-10-25T16:13:48.978Z,42.89
2022-10-25T16:16:40.221Z,43.37
2022-10-25T16:19:16.670Z,43.18
2022-10-25T16:21:44.023Z,43.07
2022-10-25T16:24:12.149Z,43.35
2022-10-25T16:26:42.960Z,43.12
2022-10-25T16:29:28.057Z,42.71
2022-10-25T16:31:54.983Z,43.02
2022-10-25T16:34:22.106Z,42.68
2022-10-25T16:36:50.623Z,43.33
2022-10-25T16:39:17.745Z,43.53
2022-10-25T16:41:46.285Z,43.83
2022-10-25T16:44:15.717Z,43.83
2022-10-25T16:46:43.287Z,44.38
2022-10-25T16:49:10.492Z,44.69
2022-10-25T16:51:38.648Z,45.03
2022-10-25T16:54:06.182Z,44.89
2022-10-25T16:56:33.115Z,44.97
2022-10-25T16:59:00.823Z,44.84
2022-10-25T17:01:34.556Z,44.73
2022-10-25T17:04:04.261Z,44.03
2022-10-25T17:06:46.769Z,43.84
2022-10-25T17:09:13.830Z,43.84
2022-10-25T17:11:41.129Z,43.48
2022-10-25T17:14:09.899Z,43.43
2022-10-25T17:16:39.609Z,43.71
2022-10-25T17:19:06.592Z,43.70
2022-10-25T17:21:35.897Z,44.01
2022-10-25T17:24:04.730Z,44.65
2022-10-25T17:26:31.755Z,44.50
2022-10-25T17:29:00.971Z,45.97
2022-10-25T17:31:32.730Z,45.62
2022-10-25T17:34:01.085Z,46.10
2022-10-25T17:36:32.528Z,45.88
2022-10-25T17:39:02.513Z,46.22
2022-10-25T17:41:29.570Z,46.40
2022-10-25T17:43:57.049Z,45.92
2022-10-25T17:46:29.767Z,46.29
2022-10-25T17:49:03.414Z,46.67
2022-10-25T17:51:32.009Z,47.01
2022-10-25T17:53:59.048Z,47.16
2022-10-25T17:56:27.306Z,47.55
2022-10-25T17:58:55.643Z,47.05
2022-10-25T18:01:26.679Z,46.44
2022-10-25T18:03:54.953Z,47.24
2022-10-25T18:06:24.127Z,46.40
2022-10-25T18:08:56.285Z,46.54
2022-10-25T18:11:24.958Z,46.66
2022-10-25T18:13:59.946Z,46.93
2022-10-25T18:16:31.047Z,46.72
2022-10-25T18:19:01.503Z,46.72
2022-10-25T18:21:29.339Z,46.67
2022-10-25T18:23:58.616Z,46.01
2022-10-25T18:26:26.865Z,45.43
2022-10-25T18:28:53.925Z,45.94
2022-10-25T18:31:21.181Z,46.34
2022-10-25T18:33:48.325Z,46.23
2022-10-25T18:36:19.438Z,46.99
2022-10-25T18:38:47.436Z,46.73
2022-10-25T18:41:26.051Z,46.90
2022-10-25T18:43:54.961Z,46.84
2022-10-25T18:46:22.309Z,46.69
2022-10-25T18:48:52.884Z,47.22
2022-10-25T18:51:22.170Z,47.16
2022-10-25T18:53:53.261Z,46.49
2022-10-25T18:56:22.062Z,46.51
2022-10-25T18:58:49.754Z,46.30
2022-10-25T19:01:20.938Z,46.29
2022-10-25T19:03:48.163Z,46.98
2022-10-25T19:06:15.192Z,47.04
2022-10-25T19:08:43.093Z,46.40
2022-10-25T19:11:12.454Z,46.45
2022-10-25T19:13:40.496Z,46.22
2022-10-25T19:16:09.413Z,46.40
2022-10-25T19:18:37.830Z,46.58
2022-10-25T19:21:10.101Z,46.01
2022-10-25T19:23:37.399Z,45.82
2022-10-25T19:26:10.130Z,46.03
2022-10-25T19:28:37.196Z,46.90
2022-10-25T19:31:09.556Z,46.53
2022-10-25T19:33:36.734Z,46.58
2022-10-25T19:36:09.059Z,46.44
2022-10-25T19:38:36.899Z,45.94
2022-10-25T19:41:06.256Z,45.97
2022-10-25T19:43:33.894Z,46.13
2022-10-25T19:46:04.881Z,46.26
2022-10-25T19:48:32.669Z,46.58
2022-10-25T19:51:15.370Z,46.75
2022-10-25T19:53:42.730Z,46.77
2022-10-25T19:56:16.093Z,46.20
2022-10-25T19:58:43.183Z,46.48
2022-10-25T20:01:16.096Z,46.52
2022-10-25T20:03:44.974Z,46.27
2022-10-25T20:06:20.225Z,46.34
2022-10-25T20:08:50.519Z,46.48
2022-10-25T20:11:18.462Z,46.57
2022-10-25T20:13:45.777Z,46.18
2022-10-25T20:16:14.183Z,46.51
2022-10-25T20:18:42.663Z,46.30
2022-10-25T20:21:11.514Z,46.12
2022-10-25T20:23:39.704Z,46.53
2022-10-25T20:26:12.185Z,46.91
2022-10-25T20:28:39.196Z,47.28
2022-10-25T20:31:06.084Z,47.28
2022-10-25T20:33:33.218Z,47.26
2022-10-25T20:36:05.720Z,47.77
2022-10-25T20:38:32.774Z,47.34
2022-10-25T20:41:11.582Z,47.87
2022-10-25T20:43:39.778Z,47.89
2022-10-25T20:46:08.189Z,47.94
2022-10-25T20:48:35.354Z,48.19
2022-10-25T20:51:05.334Z,48.15
2022-10-25T20:53:35.472Z,48.85
2022-10-25T20:56:02.468Z,48.78
2022-10-25T20:58:29.321Z,49.23
2022-10-25T21:00:57.650Z,49.17
2022-10-25T21:03:26.623Z,49.32
2022-10-25T21:05:54.832Z,49.27
2022-10-25T21:08:23.120Z,50.18
2022-10-25T21:11:16.449Z,50.85
2022-10-25T21:13:43.299Z,51.12
2022-10-25T21:16:12.286Z,51.13
2022-10-25T21:18:39.519Z,51.26
2022-10-25T21:21:09.066Z,50.76
2022-10-25T21:23:36.070Z,51.29
2022-10-25T21:26:07.761Z,51.37
2022-10-25T21:28:37.012Z,51.33
2022-10-25T21:31:06.277Z,51.38
2022-10-25T21:33:33.486Z,51.72
2022-10-25T21:36:08.954Z,51.52
2022-10-25T21:38:36.279Z,51.02
2022-10-25T21:41:15.010Z,51.18
2022-10-25T21:43:51.040Z,51.38
2022-10-25T21:46:19.894Z,51.58
2022-10-25T21:48:48.073Z,51.63
2022-10-25T21:51:15.281Z,51.76
2022-10-25T21:53:42.569Z,51.70
2022-10-25T21:56:11.108Z,52.53
2022-10-25T21:58:39.422Z,53.26
2022-10-25T22:01:17.728Z,53.28
2022-10-25T22:03:44.679Z,53.43
2022-10-25T22:06:13.778Z,53.57
2022-10-25T22:08:41.085Z,53.25
2022-10-25T22:11:12.428Z,52.69
2022-10-25T22:13:39.590Z,52.42
2022-10-25T22:16:12.482Z,53.25
2022-10-25T22:18:39.863Z,52.92
2022-10-25T22:21:11.945Z,53.02
2022-10-25T22:23:39.481Z,53.19
2022-10-25T22:26:09.440Z,54.28
2022-10-25T22:28:40.728Z,54.12
2022-10-25T22:31:16.950Z,54.38
2022-10-25T22:33:44.804Z,54.80
2022-10-25T22:36:14.633Z,55.20
2022-10-25T22:38:41.836Z,55.68
2022-10-25T22:41:20.382Z,55.50
2022-10-25T22:43:48.708Z,55.51
2022-10-25T22:46:29.931Z,56.01
2022-10-25T22:48:58.489Z,56.34
2022-10-25T22:51:27.728Z,56.53
2022-10-25T22:53:55.285Z,55.94
2022-10-25T22:56:27.420Z,56.13
2022-10-25T22:58:56.939Z,56.47
2022-10-25T23:01:29.396Z,57.27
2022-10-25T23:03:58.055Z,57.54
2022-10-25T23:06:29.897Z,58.31
2022-10-25T23:08:58.700Z,58.42
2022-10-25T23:11:31.458Z,58.90
2022-10-25T23:13:58.678Z,59.20
2022-10-25T23:16:26.596Z,59.08
2022-10-25T23:18:54.037Z,59.46
2022-10-25T23:21:23.511Z,58.95
2022-10-25T23:23:52.212Z,58.78
2022-10-25T23:26:22.475Z,58.80
2022-10-25T23:28:50.136Z,58.61
2022-10-25T23:31:17.797Z,58.98
2022-10-25T23:33:45.453Z,59.31
2022-10-25T23:36:15.667Z,59.78
2022-10-25T23:38:43.592Z,59.82
2022-10-25T23:41:10.892Z,60.36
2022-10-25T23:43:38.163Z,60.70
2022-10-25T23:46:06.201Z,60.99
2022-10-25T23:48:33.475Z,61.07
2022-10-25T23:51:03.117Z,61.06
2022-10-25T23:53:30.470Z,61.28
2022-10-25T23:55:57.889Z,61.05
2022-10-25T23:58:25.108Z,60.97
